sensor_id;sensor_type;location;lat;lon;timestamp;P1;durP1;ratioP1;P2;durP2;ratioP2
40653;SDS011;26344;45.532;9.232;2022-12-29T00:01:49;88.10;;;52.70;;
40653;SDS011;26344;45.532;9.232;2022-12-29T00:04:15;84.70;;;50.95;;
40653;SDS011;26344;45.532;9.232;2022-12-29T00:06:41;86.43;;;50.47;;
40653;SDS011;26344;45.532;9.232;2022-12-29T00:09:07;87.70;;;52.50;;
40653;SDS011;26344;45.532;9.232;2022-12-29T00:11:33;92.78;;;51.58;;
40653;SDS011;26344;45.532;9.232;2022-12-29T00:13:59;91.30;;;51.65;;
40653;SDS011;26344;45.532;9.232;2022-12-29T00:16:44;82.45;;;49.63;;
40653;SDS011;26344;45.532;9.232;2022-12-29T00:19:11;89.68;;;50.97;;
40653;SDS011;26344;45.532;9.232;2022-12-29T00:21:56;87.07;;;49.42;;
40653;SDS011;26344;45.532;9.232;2022-12-29T00:24:41;79.10;;;49.65;;
40653;SDS011;26344;45.532;9.232;2022-12-29T00:27:26;87.10;;;50.95;;
40653;SDS011;26344;45.532;9.232;2022-12-29T00:30:12;90.13;;;50.33;;
40653;SDS011;26344;45.532;9.232;2022-12-29T00:33:15;83.55;;;49.85;;
40653;SDS011;26344;45.532;9.232;2022-12-29T00:38:35;83.88;;;52.15;;
40653;SDS011;26344;45.532;9.232;2022-12-29T00:41:22;85.82;;;50.70;;
40653;SDS011;26344;45.532;9.232;2022-12-29T00:44:06;86.47;;;50.40;;
40653;SDS011;26344;45.532;9.232;2022-12-29T00:46:38;85.25;;;49.53;;
40653;SDS011;26344;45.532;9.232;2022-12-29T00:49:06;84.57;;;49.63;;
40653;SDS011;26344;45.532;9.232;2022-12-29T00:51:52;88.90;;;50.50;;
40653;SDS011;26344;45.532;9.232;2022-12-29T00:54:19;87.68;;;49.65;;
40653;SDS011;26344;45.532;9.232;2022-12-29T00:56:45;84.60;;;50.65;;
40653;SDS011;26344;45.532;9.232;2022-12-29T00:59:15;85.57;;;49.90;;
40653;SDS011;26344;45.532;9.232;2022-12-29T01:01:41;88.25;;;51.38;;
40653;SDS011;26344;45.532;9.232;2022-12-29T01:04:08;82.55;;;48.85;;
40653;SDS011;26344;45.532;9.232;2022-12-29T01:06:35;85.07;;;51.17;;
40653;SDS011;26344;45.532;9.232;2022-12-29T01:09:02;88.72;;;52.60;;
40653;SDS011;26344;45.532;9.232;2022-12-29T01:11:47;89.03;;;49.88;;
40653;SDS011;26344;45.532;9.232;2022-12-29T01:14:13;82.60;;;50.30;;
40653;SDS011;26344;45.532;9.232;2022-12-29T01:16:38;79.43;;;50.70;;
40653;SDS011;26344;45.532;9.232;2022-12-29T01:19:04;92.75;;;50.65;;
40653;SDS011;26344;45.532;9.232;2022-12-29T01:21:32;90.95;;;50.30;;
40653;SDS011;26344;45.532;9.232;2022-12-29T01:23:58;82.28;;;48.75;;
40653;SDS011;26344;45.532;9.232;2022-12-29T01:26:23;92.43;;;51.38;;
40653;SDS011;26344;45.532;9.232;2022-12-29T01:28:50;87.15;;;50.55;;
40653;SDS011;26344;45.532;9.232;2022-12-29T01:31:15;83.15;;;48.80;;
40653;SDS011;26344;45.532;9.232;2022-12-29T01:33:41;88.38;;;51.83;;
40653;SDS011;26344;45.532;9.232;2022-12-29T01:36:09;86.15;;;50.95;;
40653;SDS011;26344;45.532;9.232;2022-12-29T01:38:37;82.20;;;51.10;;
40653;SDS011;26344;45.532;9.232;2022-12-29T01:41:03;86.35;;;49.75;;
40653;SDS011;26344;45.532;9.232;2022-12-29T01:43:46;81.82;;;50.30;;
40653;SDS011;26344;45.532;9.232;2022-12-29T01:49:23;82.90;;;47.75;;
40653;SDS011;26344;45.532;9.232;2022-12-29T01:54:22;88.60;;;49.58;;
40653;SDS011;26344;45.532;9.232;2022-12-29T01:56:52;82.30;;;47.97;;
40653;SDS011;26344;45.532;9.232;2022-12-29T01:59:20;83.93;;;49.17;;
40653;SDS011;26344;45.532;9.232;2022-12-29T02:01:50;89.93;;;49.35;;
40653;SDS011;26344;45.532;9.232;2022-12-29T02:04:15;93.85;;;49.53;;
40653;SDS011;26344;45.532;9.232;2022-12-29T02:06:43;83.35;;;48.80;;
40653;SDS011;26344;45.532;9.232;2022-12-29T02:09:13;88.00;;;49.65;;
40653;SDS011;26344;45.532;9.232;2022-12-29T02:11:39;79.97;;;48.95;;
40653;SDS011;26344;45.532;9.232;2022-12-29T02:14:08;80.80;;;48.92;;
40653;SDS011;26344;45.532;9.232;2022-12-29T02:27:55;83.30;;;48.17;;
40653;SDS011;26344;45.532;9.232;2022-12-29T02:33:42;83.95;;;47.92;;
40653;SDS011;26344;45.532;9.232;2022-12-29T02:36:12;82.50;;;49.53;;
40653;SDS011;26344;45.532;9.232;2022-12-29T02:42:12;82.70;;;46.95;;
40653;SDS011;26344;45.532;9.232;2022-12-29T02:44:34;80.30;;;47.10;;
40653;SDS011;26344;45.532;9.232;2022-12-29T02:47:22;77.38;;;45.67;;
40653;SDS011;26344;45.532;9.232;2022-12-29T02:50:03;88.15;;;46.90;;
40653;SDS011;26344;45.532;9.232;2022-12-29T02:52:42;78.00;;;46.70;;
40653;SDS011;26344;45.532;9.232;2022-12-29T02:55:16;84.65;;;48.38;;
40653;SDS011;26344;45.532;9.232;2022-12-29T02:57:42;81.57;;;45.72;;
40653;SDS011;26344;45.532;9.232;2022-12-29T03:05:17;83.72;;;46.65;;
40653;SDS011;26344;45.532;9.232;2022-12-29T03:10:50;76.85;;;46.08;;
40653;SDS011;26344;45.532;9.232;2022-12-29T03:13:23;81.90;;;45.42;;
40653;SDS011;26344;45.532;9.232;2022-12-29T03:19:16;74.78;;;44.22;;
40653;SDS011;26344;45.532;9.232;2022-12-29T03:21:56;74.97;;;45.88;;
40653;SDS011;26344;45.532;9.232;2022-12-29T03:24:45;76.40;;;43.90;;
40653;SDS011;26344;45.532;9.232;2022-12-29T03:27:19;74.32;;;43.08;;
40653;SDS011;26344;45.532;9.232;2022-12-29T03:29:53;74.22;;;43.58;;
40653;SDS011;26344;45.532;9.232;2022-12-29T03:32:22;69.40;;;41.90;;
40653;SDS011;26344;45.532;9.232;2022-12-29T03:34:52;72.10;;;41.13;;
40653;SDS011;26344;45.532;9.232;2022-12-29T03:37:23;71.25;;;41.22;;
40653;SDS011;26344;45.532;9.232;2022-12-29T03:39:55;69.13;;;41.92;;
40653;SDS011;26344;45.532;9.232;2022-12-29T03:42:22;69.88;;;41.13;;
40653;SDS011;26344;45.532;9.232;2022-12-29T03:44:53;71.63;;;42.30;;
40653;SDS011;26344;45.532;9.232;2022-12-29T03:47:21;70.82;;;42.47;;
40653;SDS011;26344;45.532;9.232;2022-12-29T03:49:47;73.68;;;43.42;;
40653;SDS011;26344;45.532;9.232;2022-12-29T03:52:14;67.65;;;42.05;;
40653;SDS011;26344;45.532;9.232;2022-12-29T03:54:40;74.55;;;42.70;;
40653;SDS011;26344;45.532;9.232;2022-12-29T03:57:06;71.63;;;42.42;;
40653;SDS011;26344;45.532;9.232;2022-12-29T03:59:31;67.85;;;41.67;;
40653;SDS011;26344;45.532;9.232;2022-12-29T04:01:57;64.63;;;41.47;;
40653;SDS011;26344;45.532;9.232;2022-12-29T04:04:22;71.75;;;41.90;;
40653;SDS011;26344;45.532;9.232;2022-12-29T04:06:48;68.03;;;41.08;;
40653;SDS011;26344;45.532;9.232;2022-12-29T04:09:13;71.63;;;41.47;;
40653;SDS011;26344;45.532;9.232;2022-12-29T04:11:39;74.05;;;43.80;;
40653;SDS011;26344;45.532;9.232;2022-12-29T04:14:04;72.55;;;42.78;;
40653;SDS011;26344;45.532;9.232;2022-12-29T04:16:30;73.18;;;42.45;;
40653;SDS011;26344;45.532;9.232;2022-12-29T04:18:56;69.68;;;41.38;;
40653;SDS011;26344;45.532;9.232;2022-12-29T04:21:21;72.85;;;42.45;;
40653;SDS011;26344;45.532;9.232;2022-12-29T04:23:47;70.22;;;43.10;;
40653;SDS011;26344;45.532;9.232;2022-12-29T04:26:12;73.20;;;41.85;;
40653;SDS011;26344;45.532;9.232;2022-12-29T04:28:38;72.07;;;43.45;;
40653;SDS011;26344;45.532;9.232;2022-12-29T04:31:04;71.63;;;43.10;;
40653;SDS011;26344;45.532;9.232;2022-12-29T04:33:30;73.32;;;42.92;;
40653;SDS011;26344;45.532;9.232;2022-12-29T04:35:56;71.50;;;42.88;;
40653;SDS011;26344;45.532;9.232;2022-12-29T04:38:22;69.28;;;41.70;;
40653;SDS011;26344;45.532;9.232;2022-12-29T04:40:49;70.43;;;43.28;;
40653;SDS011;26344;45.532;9.232;2022-12-29T04:43:15;70.35;;;42.03;;
40653;SDS011;26344;45.532;9.232;2022-12-29T04:45:44;69.22;;;42.38;;
40653;SDS011;26344;45.532;9.232;2022-12-29T04:50:36;70.25;;;43.20;;
40653;SDS011;26344;45.532;9.232;2022-12-29T04:53:02;72.72;;;41.75;;
40653;SDS011;26344;45.532;9.232;2022-12-29T04:55:28;67.40;;;42.38;;
40653;SDS011;26344;45.532;9.232;2022-12-29T04:57:53;71.70;;;43.38;;
40653;SDS011;26344;45.532;9.232;2022-12-29T05:00:19;69.65;;;41.28;;
40653;SDS011;26344;45.532;9.232;2022-12-29T05:02:45;68.38;;;42.45;;
40653;SDS011;26344;45.532;9.232;2022-12-29T05:05:10;67.97;;;41.90;;
40653;SDS011;26344;45.532;9.232;2022-12-29T05:07:36;71.90;;;42.63;;
40653;SDS011;26344;45.532;9.232;2022-12-29T05:10:02;73.53;;;43.30;;
40653;SDS011;26344;45.532;9.232;2022-12-29T05:12:31;76.05;;;43.17;;
40653;SDS011;26344;45.532;9.232;2022-12-29T05:17:23;74.22;;;42.35;;
40653;SDS011;26344;45.532;9.232;2022-12-29T05:19:49;68.35;;;42.08;;
40653;SDS011;26344;45.532;9.232;2022-12-29T05:22:15;71.47;;;43.33;;
40653;SDS011;26344;45.532;9.232;2022-12-29T05:24:41;70.28;;;43.05;;
40653;SDS011;26344;45.532;9.232;2022-12-29T05:27:06;71.30;;;42.17;;
40653;SDS011;26344;45.532;9.232;2022-12-29T05:29:32;73.78;;;43.63;;
40653;SDS011;26344;45.532;9.232;2022-12-29T05:31:57;68.60;;;41.17;;
40653;SDS011;26344;45.532;9.232;2022-12-29T05:34:23;68.97;;;43.30;;
40653;SDS011;26344;45.532;9.232;2022-12-29T05:36:49;74.97;;;43.40;;
40653;SDS011;26344;45.532;9.232;2022-12-29T05:39:14;75.93;;;42.28;;
40653;SDS011;26344;45.532;9.232;2022-12-29T05:41:40;78.45;;;43.58;;
40653;SDS011;26344;45.532;9.232;2022-12-29T05:44:05;73.13;;;41.97;;
40653;SDS011;26344;45.532;9.232;2022-12-29T05:46:31;70.13;;;42.28;;
40653;SDS011;26344;45.532;9.232;2022-12-29T05:48:57;70.28;;;41.67;;
40653;SDS011;26344;45.532;9.232;2022-12-29T05:51:23;64.90;;;40.95;;
40653;SDS011;26344;45.532;9.232;2022-12-29T05:53:48;69.95;;;41.50;;
40653;SDS011;26344;45.532;9.232;2022-12-29T05:56:14;65.15;;;42.28;;
40653;SDS011;26344;45.532;9.232;2022-12-29T05:58:40;66.68;;;41.80;;
40653;SDS011;26344;45.532;9.232;2022-12-29T06:01:07;66.90;;;43.70;;
40653;SDS011;26344;45.532;9.232;2022-12-29T06:03:33;71.40;;;41.33;;
40653;SDS011;26344;45.532;9.232;2022-12-29T06:05:58;68.78;;;42.53;;
40653;SDS011;26344;45.532;9.232;2022-12-29T06:08:24;71.75;;;42.92;;
40653;SDS011;26344;45.532;9.232;2022-12-29T06:10:50;68.95;;;42.38;;
40653;SDS011;26344;45.532;9.232;2022-12-29T06:13:15;67.85;;;40.20;;
40653;SDS011;26344;45.532;9.232;2022-12-29T06:15:41;65.88;;;41.15;;
40653;SDS011;26344;45.532;9.232;2022-12-29T06:18:07;65.60;;;40.97;;
40653;SDS011;26344;45.532;9.232;2022-12-29T06:20:33;68.80;;;42.28;;
40653;SDS011;26344;45.532;9.232;2022-12-29T06:22:58;69.47;;;42.58;;
40653;SDS011;26344;45.532;9.232;2022-12-29T06:25:24;69.07;;;41.67;;
40653;SDS011;26344;45.532;9.232;2022-12-29T06:27:49;69.95;;;42.17;;
40653;SDS011;26344;45.532;9.232;2022-12-29T06:30:15;67.40;;;42.78;;
40653;SDS011;26344;45.532;9.232;2022-12-29T06:32:42;69.65;;;43.33;;
40653;SDS011;26344;45.532;9.232;2022-12-29T06:35:07;70.13;;;41.78;;
40653;SDS011;26344;45.532;9.232;2022-12-29T06:37:33;69.82;;;41.15;;
40653;SDS011;26344;45.532;9.232;2022-12-29T06:39:59;69.68;;;41.67;;
40653;SDS011;26344;45.532;9.232;2022-12-29T06:42:25;67.25;;;42.50;;
40653;SDS011;26344;45.532;9.232;2022-12-29T06:44:50;68.35;;;42.28;;
40653;SDS011;26344;45.532;9.232;2022-12-29T06:47:17;67.47;;;43.22;;
40653;SDS011;26344;45.532;9.232;2022-12-29T06:49:43;68.63;;;42.20;;
40653;SDS011;26344;45.532;9.232;2022-12-29T06:52:09;70.25;;;42.85;;
40653;SDS011;26344;45.532;9.232;2022-12-29T06:54:35;68.85;;;43.05;;
40653;SDS011;26344;45.532;9.232;2022-12-29T06:57:01;76.55;;;44.70;;
40653;SDS011;26344;45.532;9.232;2022-12-29T06:59:26;75.65;;;44.28;;
40653;SDS011;26344;45.532;9.232;2022-12-29T07:01:52;71.90;;;42.63;;
40653;SDS011;26344;45.532;9.232;2022-12-29T07:04:18;74.32;;;44.92;;
40653;SDS011;26344;45.532;9.232;2022-12-29T07:06:43;67.18;;;42.65;;
40653;SDS011;26344;45.532;9.232;2022-12-29T07:09:09;76.22;;;43.08;;
40653;SDS011;26344;45.532;9.232;2022-12-29T07:11:35;74.78;;;45.30;;
40653;SDS011;26344;45.532;9.232;2022-12-29T07:14:02;78.80;;;45.10;;
40653;SDS011;26344;45.532;9.232;2022-12-29T07:16:28;81.88;;;46.95;;
40653;SDS011;26344;45.532;9.232;2022-12-29T07:18:55;76.75;;;46.78;;
40653;SDS011;26344;45.532;9.232;2022-12-29T07:21:21;72.55;;;44.45;;
40653;SDS011;26344;45.532;9.232;2022-12-29T07:23:47;78.22;;;46.50;;
40653;SDS011;26344;45.532;9.232;2022-12-29T07:26:13;80.18;;;45.85;;
40653;SDS011;26344;45.532;9.232;2022-12-29T07:28:40;71.22;;;44.75;;
40653;SDS011;26344;45.532;9.232;2022-12-29T07:31:08;75.85;;;45.85;;
40653;SDS011;26344;45.532;9.232;2022-12-29T07:33:42;75.78;;;45.63;;
40653;SDS011;26344;45.532;9.232;2022-12-29T07:36:09;79.22;;;47.33;;
40653;SDS011;26344;45.532;9.232;2022-12-29T07:38:35;84.22;;;44.45;;
40653;SDS011;26344;45.532;9.232;2022-12-29T07:41:01;69.53;;;46.15;;
40653;SDS011;26344;45.532;9.232;2022-12-29T07:43:26;76.38;;;46.70;;
40653;SDS011;26344;45.532;9.232;2022-12-29T07:45:52;81.38;;;47.85;;
40653;SDS011;26344;45.532;9.232;2022-12-29T07:48:18;84.97;;;48.05;;
40653;SDS011;26344;45.532;9.232;2022-12-29T07:50:44;80.05;;;47.63;;
40653;SDS011;26344;45.532;9.232;2022-12-29T07:53:09;80.35;;;46.40;;
40653;SDS011;26344;45.532;9.232;2022-12-29T07:55:35;72.68;;;45.40;;
40653;SDS011;26344;45.532;9.232;2022-12-29T07:58:01;74.97;;;46.55;;
40653;SDS011;26344;45.532;9.232;2022-12-29T08:00:26;78.05;;;47.42;;
40653;SDS011;26344;45.532;9.232;2022-12-29T08:02:52;75.43;;;47.40;;
40653;SDS011;26344;45.532;9.232;2022-12-29T08:05:18;80.60;;;46.97;;
40653;SDS011;26344;45.532;9.232;2022-12-29T08:07:43;79.10;;;48.80;;
40653;SDS011;26344;45.532;9.232;2022-12-29T08:10:10;78.03;;;46.80;;
40653;SDS011;26344;45.532;9.232;2022-12-29T08:12:37;79.65;;;47.05;;
40653;SDS011;26344;45.532;9.232;2022-12-29T08:15:03;76.35;;;46.40;;
40653;SDS011;26344;45.532;9.232;2022-12-29T08:17:30;80.05;;;48.60;;
40653;SDS011;26344;45.532;9.232;2022-12-29T08:19:56;78.55;;;47.42;;
40653;SDS011;26344;45.532;9.232;2022-12-29T08:22:22;76.60;;;45.65;;
40653;SDS011;26344;45.532;9.232;2022-12-29T08:24:48;75.30;;;45.40;;
40653;SDS011;26344;45.532;9.232;2022-12-29T08:27:13;81.53;;;46.97;;
40653;SDS011;26344;45.532;9.232;2022-12-29T08:29:39;79.03;;;47.22;;
40653;SDS011;26344;45.532;9.232;2022-12-29T08:32:05;76.68;;;46.58;;
40653;SDS011;26344;45.532;9.232;2022-12-29T08:34:31;77.82;;;47.30;;
40653;SDS011;26344;45.532;9.232;2022-12-29T08:36:57;78.53;;;46.28;;
40653;SDS011;26344;45.532;9.232;2022-12-29T08:39:23;76.72;;;47.75;;
40653;SDS011;26344;45.532;9.232;2022-12-29T08:41:48;85.15;;;47.47;;
40653;SDS011;26344;45.532;9.232;2022-12-29T08:44:14;75.97;;;46.78;;
40653;SDS011;26344;45.532;9.232;2022-12-29T08:46:40;85.47;;;48.28;;
40653;SDS011;26344;45.532;9.232;2022-12-29T08:49:05;80.28;;;48.53;;
40653;SDS011;26344;45.532;9.232;2022-12-29T08:51:33;80.45;;;48.50;;
40653;SDS011;26344;45.532;9.232;2022-12-29T08:54:01;89.05;;;50.20;;
40653;SDS011;26344;45.532;9.232;2022-12-29T08:56:26;80.18;;;48.03;;
40653;SDS011;26344;45.532;9.232;2022-12-29T08:58:53;86.65;;;48.90;;
40653;SDS011;26344;45.532;9.232;2022-12-29T09:01:19;85.00;;;49.85;;
40653;SDS011;26344;45.532;9.232;2022-12-29T09:03:52;86.80;;;50.53;;
40653;SDS011;26344;45.532;9.232;2022-12-29T09:06:21;87.75;;;49.05;;
40653;SDS011;26344;45.532;9.232;2022-12-29T09:08:46;80.53;;;47.85;;
40653;SDS011;26344;45.532;9.232;2022-12-29T09:11:14;82.47;;;48.35;;
40653;SDS011;26344;45.532;9.232;2022-12-29T09:13:40;80.63;;;47.47;;
40653;SDS011;26344;45.532;9.232;2022-12-29T09:16:11;81.93;;;48.50;;
40653;SDS011;26344;45.532;9.232;2022-12-29T09:18:37;80.60;;;49.13;;
40653;SDS011;26344;45.532;9.232;2022-12-29T09:21:04;81.47;;;50.80;;
40653;SDS011;26344;45.532;9.232;2022-12-29T09:23:32;83.47;;;50.80;;
40653;SDS011;26344;45.532;9.232;2022-12-29T09:25:58;88.50;;;52.15;;
40653;SDS011;26344;45.532;9.232;2022-12-29T09:28:24;86.40;;;49.38;;
40653;SDS011;26344;45.532;9.232;2022-12-29T09:30:49;77.90;;;48.72;;
40653;SDS011;26344;45.532;9.232;2022-12-29T09:33:16;82.47;;;50.35;;
40653;SDS011;26344;45.532;9.232;2022-12-29T09:35:45;83.65;;;50.10;;
40653;SDS011;26344;45.532;9.232;2022-12-29T09:38:16;84.45;;;50.92;;
40653;SDS011;26344;45.532;9.232;2022-12-29T09:40:43;90.50;;;50.85;;
40653;SDS011;26344;45.532;9.232;2022-12-29T09:45:47;82.47;;;51.17;;
40653;SDS011;26344;45.532;9.232;2022-12-29T09:48:37;86.95;;;51.92;;
40653;SDS011;26344;45.532;9.232;2022-12-29T09:51:13;84.72;;;50.35;;
40653;SDS011;26344;45.532;9.232;2022-12-29T09:53:59;81.90;;;49.65;;
40653;SDS011;26344;45.532;9.232;2022-12-29T09:56:29;79.18;;;48.22;;
40653;SDS011;26344;45.532;9.232;2022-12-29T10:01:42;92.82;;;51.40;;
40653;SDS011;26344;45.532;9.232;2022-12-29T10:04:14;87.50;;;51.65;;
40653;SDS011;26344;45.532;9.232;2022-12-29T10:09:20;76.87;;;49.67;;
40653;SDS011;26344;45.532;9.232;2022-12-29T10:23:35;86.28;;;50.55;;
40653;SDS011;26344;45.532;9.232;2022-12-29T10:26:07;84.25;;;49.35;;
40653;SDS011;26344;45.532;9.232;2022-12-29T10:28:46;86.60;;;49.40;;
40653;SDS011;26344;45.532;9.232;2022-12-29T10:31:40;87.88;;;49.72;;
40653;SDS011;26344;45.532;9.232;2022-12-29T10:36:51;87.40;;;51.22;;
40653;SDS011;26344;45.532;9.232;2022-12-29T10:39:29;83.30;;;50.78;;
40653;SDS011;26344;45.532;9.232;2022-12-29T10:44:43;82.28;;;51.72;;
40653;SDS011;26344;45.532;9.232;2022-12-29T10:47:11;85.68;;;50.85;;
40653;SDS011;26344;45.532;9.232;2022-12-29T10:49:41;85.38;;;51.88;;
40653;SDS011;26344;45.532;9.232;2022-12-29T10:52:09;89.88;;;53.05;;
40653;SDS011;26344;45.532;9.232;2022-12-29T10:57:38;85.75;;;51.63;;
40653;SDS011;26344;45.532;9.232;2022-12-29T11:00:12;84.43;;;49.70;;
40653;SDS011;26344;45.532;9.232;2022-12-29T11:06:06;81.88;;;49.63;;
40653;SDS011;26344;45.532;9.232;2022-12-29T11:08:38;86.88;;;50.92;;
40653;SDS011;26344;45.532;9.232;2022-12-29T11:11:10;82.18;;;48.40;;
40653;SDS011;26344;45.532;9.232;2022-12-29T11:13:48;78.35;;;49.35;;
40653;SDS011;26344;45.532;9.232;2022-12-29T11:16:37;81.15;;;50.92;;
40653;SDS011;26344;45.532;9.232;2022-12-29T11:19:01;74.40;;;47.30;;
40653;SDS011;26344;45.532;9.232;2022-12-29T11:24:01;78.00;;;47.75;;
40653;SDS011;26344;45.532;9.232;2022-12-29T11:26:31;76.57;;;48.50;;
40653;SDS011;26344;45.532;9.232;2022-12-29T11:31:46;79.97;;;49.08;;
40653;SDS011;26344;45.532;9.232;2022-12-29T11:34:17;84.43;;;50.20;;
40653;SDS011;26344;45.532;9.232;2022-12-29T11:36:43;80.80;;;48.80;;
40653;SDS011;26344;45.532;9.232;2022-12-29T11:39:17;81.03;;;49.65;;
40653;SDS011;26344;45.532;9.232;2022-12-29T11:41:54;77.47;;;49.05;;
40653;SDS011;26344;45.532;9.232;2022-12-29T11:44:20;82.43;;;48.05;;
40653;SDS011;26344;45.532;9.232;2022-12-29T11:46:46;77.93;;;46.50;;
40653;SDS011;26344;45.532;9.232;2022-12-29T11:49:19;78.97;;;48.10;;
40653;SDS011;26344;45.532;9.232;2022-12-29T11:51:47;80.45;;;47.60;;
40653;SDS011;26344;45.532;9.232;2022-12-29T11:54:53;81.32;;;48.30;;
40653;SDS011;26344;45.532;9.232;2022-12-29T11:57:14;80.18;;;50.05;;
40653;SDS011;26344;45.532;9.232;2022-12-29T11:59:43;82.80;;;48.65;;
40653;SDS011;26344;45.532;9.232;2022-12-29T12:02:35;80.70;;;48.40;;
40653;SDS011;26344;45.532;9.232;2022-12-29T12:07:56;76.93;;;47.50;;
40653;SDS011;26344;45.532;9.232;2022-12-29T12:10:33;83.88;;;49.80;;
40653;SDS011;26344;45.532;9.232;2022-12-29T12:15:54;84.07;;;49.13;;
40653;SDS011;26344;45.532;9.232;2022-12-29T12:20:54;83.28;;;49.83;;
40653;SDS011;26344;45.532;9.232;2022-12-29T12:23:41;85.50;;;50.85;;
40653;SDS011;26344;45.532;9.232;2022-12-29T12:26:15;78.40;;;48.90;;
40653;SDS011;26344;45.532;9.232;2022-12-29T12:28:54;82.20;;;49.67;;
40653;SDS011;26344;45.532;9.232;2022-12-29T12:33:51;86.78;;;51.65;;
40653;SDS011;26344;45.532;9.232;2022-12-29T12:40:02;90.50;;;51.15;;
40653;SDS011;26344;45.532;9.232;2022-12-29T12:42:58;75.22;;;48.67;;
40653;SDS011;26344;45.532;9.232;2022-12-29T12:51:37;87.85;;;51.72;;
40653;SDS011;26344;45.532;9.232;2022-12-29T13:00:29;86.03;;;51.05;;
40653;SDS011;26344;45.532;9.232;2022-12-29T13:06:02;84.07;;;50.35;;
40653;SDS011;26344;45.532;9.232;2022-12-29T13:08:56;85.15;;;51.72;;
40653;SDS011;26344;45.532;9.232;2022-12-29T13:11:54;82.55;;;50.75;;
40653;SDS011;26344;45.532;9.232;2022-12-29T13:14:57;87.28;;;51.35;;
40653;SDS011;26344;45.532;9.232;2022-12-29T13:24:16;81.82;;;49.65;;
40653;SDS011;26344;45.532;9.232;2022-12-29T13:27:00;89.57;;;50.42;;
40653;SDS011;26344;45.532;9.232;2022-12-29T13:38:18;82.53;;;51.55;;
40653;SDS011;26344;45.532;9.232;2022-12-29T13:41:08;84.32;;;51.85;;
40653;SDS011;26344;45.532;9.232;2022-12-29T13:43:44;84.68;;;52.45;;
40653;SDS011;26344;45.532;9.232;2022-12-29T13:46:19;85.10;;;50.90;;
40653;SDS011;26344;45.532;9.232;2022-12-29T13:49:10;85.57;;;50.53;;
40653;SDS011;26344;45.532;9.232;2022-12-29T13:51:50;87.82;;;52.45;;
40653;SDS011;26344;45.532;9.232;2022-12-29T13:54:27;91.78;;;52.58;;
40653;SDS011;26344;45.532;9.232;2022-12-29T13:59:51;83.05;;;51.78;;
40653;SDS011;26344;45.532;9.232;2022-12-29T14:05:02;85.82;;;52.60;;
40653;SDS011;26344;45.532;9.232;2022-12-29T14:07:35;89.05;;;50.38;;
40653;SDS011;26344;45.532;9.232;2022-12-29T14:10:02;83.93;;;51.42;;
40653;SDS011;26344;45.532;9.232;2022-12-29T14:17:40;84.50;;;50.53;;
40653;SDS011;26344;45.532;9.232;2022-12-29T14:20:06;79.68;;;49.08;;
40653;SDS011;26344;45.532;9.232;2022-12-29T14:25:53;79.28;;;48.80;;
40653;SDS011;26344;45.532;9.232;2022-12-29T14:28:36;79.68;;;47.80;;
40653;SDS011;26344;45.532;9.232;2022-12-29T14:31:04;79.22;;;48.13;;
40653;SDS011;26344;45.532;9.232;2022-12-29T14:36:35;75.57;;;46.90;;
40653;SDS011;26344;45.532;9.232;2022-12-29T14:42:03;74.70;;;45.72;;
40653;SDS011;26344;45.532;9.232;2022-12-29T14:44:47;75.07;;;46.67;;
40653;SDS011;26344;45.532;9.232;2022-12-29T14:47:19;77.65;;;45.40;;
40653;SDS011;26344;45.532;9.232;2022-12-29T14:50:07;79.68;;;47.58;;
40653;SDS011;26344;45.532;9.232;2022-12-29T14:58:04;71.40;;;46.78;;
40653;SDS011;26344;45.532;9.232;2022-12-29T15:00:50;77.88;;;47.28;;
40653;SDS011;26344;45.532;9.232;2022-12-29T15:03:30;72.88;;;47.17;;
40653;SDS011;26344;45.532;9.232;2022-12-29T15:08:39;74.72;;;45.60;;
40653;SDS011;26344;45.532;9.232;2022-12-29T15:11:18;68.43;;;43.65;;
40653;SDS011;26344;45.532;9.232;2022-12-29T15:13:46;74.03;;;44.85;;
40653;SDS011;26344;45.532;9.232;2022-12-29T15:16:30;69.13;;;44.05;;
40653;SDS011;26344;45.532;9.232;2022-12-29T15:19:00;70.95;;;42.38;;
40653;SDS011;26344;45.532;9.232;2022-12-29T15:21:27;65.47;;;40.67;;
40653;SDS011;26344;45.532;9.232;2022-12-29T15:23:55;63.67;;;40.92;;
40653;SDS011;26344;45.532;9.232;2022-12-29T15:26:21;61.50;;;40.60;;
40653;SDS011;26344;45.532;9.232;2022-12-29T15:28:51;65.07;;;40.05;;
40653;SDS011;26344;45.532;9.232;2022-12-29T15:31:20;64.22;;;40.05;;
40653;SDS011;26344;45.532;9.232;2022-12-29T15:33:51;58.35;;;39.47;;
40653;SDS011;26344;45.532;9.232;2022-12-29T15:36:23;66.53;;;40.03;;
40653;SDS011;26344;45.532;9.232;2022-12-29T15:38:52;63.55;;;38.35;;
40653;SDS011;26344;45.532;9.232;2022-12-29T15:46:34;61.63;;;38.67;;
40653;SDS011;26344;45.532;9.232;2022-12-29T15:49:00;60.97;;;37.15;;
40653;SDS011;26344;45.532;9.232;2022-12-29T15:51:33;56.97;;;36.83;;
40653;SDS011;26344;45.532;9.232;2022-12-29T15:54:02;67.03;;;37.22;;
40653;SDS011;26344;45.532;9.232;2022-12-29T15:56:28;51.75;;;36.30;;
40653;SDS011;26344;45.532;9.232;2022-12-29T15:58:55;57.85;;;35.53;;
40653;SDS011;26344;45.532;9.232;2022-12-29T16:03:53;57.65;;;35.00;;
40653;SDS011;26344;45.532;9.232;2022-12-29T16:09:15;55.05;;;35.25;;
40653;SDS011;26344;45.532;9.232;2022-12-29T16:11:43;56.10;;;35.65;;
40653;SDS011;26344;45.532;9.232;2022-12-29T16:14:16;58.50;;;37.40;;
40653;SDS011;26344;45.532;9.232;2022-12-29T16:16:49;53.55;;;35.40;;
40653;SDS011;26344;45.532;9.232;2022-12-29T16:21:49;55.33;;;35.28;;
40653;SDS011;26344;45.532;9.232;2022-12-29T16:24:16;57.60;;;36.40;;
40653;SDS011;26344;45.532;9.232;2022-12-29T16:26:46;57.93;;;35.50;;
40653;SDS011;26344;45.532;9.232;2022-12-29T16:29:32;55.25;;;35.78;;
40653;SDS011;26344;45.532;9.232;2022-12-29T16:32:00;55.63;;;35.47;;
40653;SDS011;26344;45.532;9.232;2022-12-29T16:36:55;52.22;;;34.90;;
40653;SDS011;26344;45.532;9.232;2022-12-29T16:51:34;53.53;;;34.45;;
40653;SDS011;26344;45.532;9.232;2022-12-29T16:53:56;57.80;;;36.85;;
40653;SDS011;26344;45.532;9.232;2022-12-29T16:59:32;58.00;;;35.60;;
40653;SDS011;26344;45.532;9.232;2022-12-29T17:05:23;59.50;;;36.67;;
40653;SDS011;26344;45.532;9.232;2022-12-29T17:07:52;61.87;;;36.07;;
40653;SDS011;26344;45.532;9.232;2022-12-29T17:10:19;57.10;;;37.15;;
40653;SDS011;26344;45.532;9.232;2022-12-29T17:12:47;55.10;;;38.13;;
40653;SDS011;26344;45.532;9.232;2022-12-29T17:17:59;59.60;;;36.88;;
40653;SDS011;26344;45.532;9.232;2022-12-29T17:23:47;62.67;;;38.38;;
40653;SDS011;26344;45.532;9.232;2022-12-29T17:26:16;61.40;;;38.78;;
40653;SDS011;26344;45.532;9.232;2022-12-29T17:28:45;58.38;;;37.90;;
40653;SDS011;26344;45.532;9.232;2022-12-29T17:33:43;64.50;;;39.92;;
40653;SDS011;26344;45.532;9.232;2022-12-29T17:36:16;65.40;;;39.75;;
40653;SDS011;26344;45.532;9.232;2022-12-29T17:38:41;60.40;;;39.73;;
40653;SDS011;26344;45.532;9.232;2022-12-29T17:41:13;64.13;;;39.20;;
40653;SDS011;26344;45.532;9.232;2022-12-29T17:44:13;64.40;;;38.85;;
40653;SDS011;26344;45.532;9.232;2022-12-29T17:47:10;66.65;;;40.95;;
40653;SDS011;26344;45.532;9.232;2022-12-29T17:49:41;65.35;;;41.22;;
40653;SDS011;26344;45.532;9.232;2022-12-29T17:52:10;67.70;;;41.20;;
40653;SDS011;26344;45.532;9.232;2022-12-29T17:54:51;68.97;;;41.53;;